Time;durP1;ratioP1;P1;durP2;ratioP2;P2;SDS_P1;SDS_P2;PMS_P1;PMS_P2;Temp;Humidity;BMP_temperature;BMP_pressure;BME280_temperature;BME280_humidity;BME280_pressure;Samples;Min_cycle;Max_cycle;Signal;HPM_P1;HPM_P2
2021/12/24 00:01:06;;;;;;;48.30;16.77;;;;;;;-13.07;100.00;100203.94;1676189;85;21600;-74
2021/12/24 00:03:34;;;;;;;53.93;18.27;;;;;;;-13.05;100.00;100195.17;1661416;85;21133;-75
2021/12/24 00:06:04;;;;;;;58.97;22.33;;;;;;;-13.07;100.00;100186.20;1650162;85;21101;-74
2021/12/24 00:08:30;;;;;;;43.67;17.97;;;;;;;-13.06;100.00;100186.70;1648713;87;21062;-75
2021/12/24 00:11:00;;;;;;;60.53;22.80;;;;;;;-13.04;100.00;100182.59;1648370;87;21145;-74
2021/12/24 00:13:34;;;;;;;57.67;20.67;;;;;;;-13.02;100.00;100186.09;1648187;86;21172;-74
2021/12/24 00:16:14;;;;;;;37.10;17.50;;;;;;;-13.02;100.00;100175.95;1648371;86;21360;-75
2021/12/24 00:37:21;;;;;;;37.50;14.63;;;;;;;-12.97;100.00;100141.59;1648437;87;21054;-75
2021/12/24 00:40:03;;;;;;;51.23;19.10;;;;;;;-12.98;100.00;100128.41;1648429;87;21074;-74
2021/12/24 00:42:19;;;;;;;22.60;10.63;;;;;;;-12.98;100.00;100125.88;1647417;86;22054;-75
2021/12/24 00:44:46;;;;;;;56.67;22.10;;;;;;;-12.97;100.00;100122.58;1648239;87;21158;-72
2021/12/24 00:47:12;;;;;;;57.87;20.77;;;;;;;-12.95;100.00;100117.20;1648283;87;21082;-75
2021/12/24 00:49:42;;;;;;;65.80;20.67;;;;;;;-12.92;100.00;100113.55;1648104;87;21579;-74
2021/12/24 00:55:03;;;;;;;38.00;15.17;;;;;;;-12.87;100.00;100111.67;1648259;87;21169;-75
2021/12/24 00:57:30;;;;;;;51.27;21.33;;;;;;;-12.88;100.00;100110.81;1647958;87;21062;-75
2021/12/24 00:59:57;;;;;;;50.77;21.03;;;;;;;-12.87;100.00;100099.00;1648236;86;21102;-74
2021/12/24 01:02:23;;;;;;;47.80;19.27;;;;;;;-12.86;100.00;100092.73;1674902;85;21854;-74
2021/12/24 01:04:50;;;;;;;29.53;10.87;;;;;;;-12.84;100.00;100092.82;1675805;85;21087;-74
2021/12/24 01:07:17;;;;;;;38.67;16.03;;;;;;;-12.87;100.00;100089.72;1648392;87;21820;-76
2021/12/24 01:09:44;;;;;;;52.27;20.53;;;;;;;-12.85;100.00;100084.75;1648306;87;21063;-76
2021/12/24 01:12:10;;;;;;;45.00;17.67;;;;;;;-12.85;100.00;100083.48;1648391;85;21145;-75
2021/12/24 01:14:41;;;;;;;49.38;21.33;;;;;;;-12.85;100.00;100078.41;1648205;87;21078;-76
2021/12/24 01:17:20;;;;;;;41.83;15.80;;;;;;;-12.83;100.00;100070.50;1649732;85;21106;-76
2021/12/24 01:19:41;;;;;;;51.50;18.47;;;;;;;-12.84;100.00;100066.19;1654174;85;21149;-76
2021/12/24 01:25:00;;;;;;;45.03;15.90;;;;;;;-12.81;100.00;100055.84;1677696;84;21141;-76
2021/12/24 01:38:10;;;;;;;28.00;11.90;;;;;;;-12.83;100.00;100003.30;1677406;84;21584;-72
2021/12/24 01:40:50;;;;;;;;;;;;;;;-12.73;100.00;100019.47;1678347;85;21078;-73
2021/12/24 01:42:57;;;;;;;41.63;16.30;;;;;;;-12.72;100.00;100013.59;1682593;84;20184;-74
2021/12/24 01:45:26;;;;;;;51.40;18.30;;;;;;;-12.73;100.00;99997.91;1705961;84;21145;-75
2021/12/24 01:48:01;;;;;;;40.10;16.73;;;;;;;-12.75;100.00;99994.02;1679433;83;21656;-74
2021/12/24 01:50:32;;;;;;;33.07;13.17;;;;;;;-12.73;100.00;99986.50;1677273;85;21552;-74
2021/12/24 01:53:01;;;;;;;38.13;14.47;;;;;;;-12.76;100.00;99983.41;1677836;85;21140;-74
2021/12/24 01:55:30;;;;;;;32.13;12.50;;;;;;;-12.77;100.00;99971.91;1677456;85;21082;-75
2021/12/24 01:57:57;;;;;;;49.10;19.43;;;;;;;-12.78;100.00;99971.03;1677754;85;22223;-77
2021/12/24 02:00:30;;;;;;;36.80;10.63;;;;;;;-12.79;100.00;99961.70;1677166;85;21238;-74
2021/12/24 02:02:56;;;;;;;33.83;13.00;;;;;;;-12.82;100.00;99961.92;1677795;85;21631;-75
2021/12/24 02:05:24;;;;;;;44.20;17.60;;;;;;;-12.80;100.00;99959.07;1677269;85;21053;-75
2021/12/24 02:07:52;;;;;;;37.33;12.70;;;;;;;-12.81;100.00;99957.31;1677771;85;21058;-77
2021/12/24 02:10:20;;;;;;;45.83;17.80;;;;;;;-12.80;100.00;99945.13;1677299;85;21186;-76
2021/12/24 02:12:48;;;;;;;35.90;11.10;;;;;;;-12.81;100.00;99944.62;1677801;85;21601;-74
2021/12/24 02:15:29;;;;;;;52.50;19.37;;;;;;;-12.84;100.00;99939.00;1677645;85;21415;-72
2021/12/24 02:28:39;;;;;;;36.10;12.63;;;;;;;-12.77;100.00;99908.50;1706635;83;21059;-75
2021/12/24 02:31:10;;;;;;;24.27;9.57;;;;;;;-12.75;100.00;99908.19;1706095;84;21549;-76
2021/12/24 02:33:39;;;;;;;41.30;16.03;;;;;;;-12.74;100.00;99903.61;1706495;83;21151;-76
2021/12/24 02:36:05;;;;;;;32.70;10.53;;;;;;;-12.74;100.00;99899.41;1706027;83;21133;-75
2021/12/24 02:38:33;;;;;;;36.43;11.67;;;;;;;-12.69;100.00;99900.91;1706094;83;21082;-76
2021/12/24 02:41:00;;;;;;;28.87;12.80;;;;;;;-12.67;100.00;99887.91;1706157;84;21123;-75
2021/12/24 02:43:27;;;;;;;29.10;12.27;;;;;;;-12.66;100.00;99880.77;1706017;83;21058;-76
2021/12/24 02:45:57;;;;;;;41.47;15.97;;;;;;;-12.63;100.00;99877.11;1706412;83;21187;-76
2021/12/24 02:56:17;;;;;;;34.60;13.40;;;;;;;-12.64;100.00;99867.77;1644816;85;21070;-77
2021/12/24 02:58:47;;;;;;;34.03;10.93;;;;;;;-12.65;100.00;99854.63;1677818;85;21047;-73
2021/12/24 03:01:16;;;;;;;42.20;16.63;;;;;;;-12.67;100.00;99856.21;1677585;85;21843;-75
2021/12/24 03:03:48;;;;;;;37.95;16.40;;;;;;;-12.68;100.00;99853.18;1677700;85;21094;-74
2021/12/24 03:06:16;;;;;;;38.50;17.13;;;;;;;-12.68;100.00;99856.98;1677562;84;21153;-73
2021/12/24 03:08:42;;;;;;;36.53;14.67;;;;;;;-12.70;100.00;99842.98;1685392;84;21046;-73
2021/12/24 03:11:09;;;;;;;16.23;8.03;;;;;;;-12.71;100.00;99840.36;1706164;83;21580;-73
2021/12/24 03:13:37;;;;;;;37.27;13.50;;;;;;;-12.73;100.00;99847.01;1705835;83;21160;-74
2021/12/24 03:16:03;;;;;;;29.80;11.27;;;;;;;-12.75;100.00;99839.72;1661031;84;21150;-72
2021/12/24 03:18:33;;;;;;;33.27;11.07;;;;;;;-12.74;100.00;99835.14;1705918;84;21034;-74
2021/12/24 03:21:27;;;;;;;20.67;9.60;;;;;;;-12.75;100.00;99824.50;1706124;83;21095;-70
2021/12/24 03:26:39;;;;;;;26.00;10.93;;;;;;;-12.74;100.00;99809.78;1705474;84;21284;-71
2021/12/24 03:29:09;;;;;;;29.17;12.53;;;;;;;-12.74;100.00;99809.78;1704838;84;21580;-71
2021/12/24 03:31:37;;;;;;;16.32;8.78;;;;;;;-12.73;100.00;99809.83;1706959;84;21891;-72
2021/12/24 03:34:12;;;;;;;16.90;7.50;;;;;;;-12.74;100.00;99794.56;1705971;84;21062;-70
2021/12/24 03:36:38;;;;;;;29.00;10.70;;;;;;;-12.75;100.00;99791.53;1705932;84;21572;-71
2021/12/24 03:39:08;;;;;;;35.77;14.23;;;;;;;-12.73;100.00;99794.62;1706310;84;21146;-70
2021/12/24 03:41:34;;;;;;;26.73;12.17;;;;;;;-12.73;100.00;99776.00;1705744;84;21764;-72
2021/12/24 03:44:01;;;;;;;19.33;7.03;;;;;;;-12.76;100.00;99774.19;1706060;84;21078;-73
2021/12/24 03:46:40;;;;;;;27.97;11.17;;;;;;;-12.74;100.00;99765.39;1705828;83;21680;-73
2021/12/24 03:49:01;;;;;;;27.93;12.13;;;;;;;-12.76;100.00;99764.45;1681379;84;21086;-72
2021/12/24 03:51:36;;;;;;;33.57;13.63;;;;;;;-12.76;100.00;99765.72;1705324;84;21337;-72
2021/12/24 03:56:39;;;;;;;36.63;13.03;;;;;;;-12.79;100.00;99757.94;1705814;84;21062;-73
2021/12/24 03:59:08;;;;;;;32.28;11.33;;;;;;;-12.80;100.00;99753.27;1705998;84;21067;-73
2021/12/24 04:01:52;;;;;;;21.73;7.53;;;;;;;-12.80;100.00;99752.00;1705843;84;21046;-73
2021/12/24 04:04:21;;;;;;;26.27;9.93;;;;;;;-12.81;100.00;99743.03;1669026;84;21103;-72
2021/12/24 04:07:06;;;;;;;24.47;9.00;;;;;;;-12.82;100.00;99738.77;1706116;84;21605;-72
2021/12/24 04:10:10;;;;;;;36.40;13.60;;;;;;;-12.84;100.00;99726.41;1706118;84;21058;-73
2021/12/24 04:12:35;;;;;;;30.33;13.50;;;;;;;-12.85;100.00;99724.69;1654993;84;21447;-73
2021/12/24 04:15:02;;;;;;;27.33;11.27;;;;;;;-12.87;100.00;99724.59;1682093;84;21074;-71
2021/12/24 04:17:32;;;;;;;18.30;9.07;;;;;;;-12.88;100.00;99720.34;1677263;84;21087;-72
2021/12/24 04:25:32;;;;;;;22.57;8.93;;;;;;;-12.89;100.00;99697.89;1677464;85;21138;-71
2021/12/24 04:28:00;;;;;;;30.63;10.30;;;;;;;-12.86;100.00;99695.90;1677530;85;21093;-72
2021/12/24 04:30:32;;;;;;;34.10;14.60;;;;;;;-12.84;100.00;99689.64;1677402;85;21818;-72
2021/12/24 04:33:59;;;;;;;15.17;6.67;;;;;;;-12.82;100.00;99682.98;1677093;85;21076;-72
2021/12/24 04:35:41;;;;;;;23.60;9.53;;;;;;;-12.83;100.00;99674.92;1658241;85;21115;-72
2021/12/24 04:51:56;;;;;;;37.50;14.90;;;;;;;-12.83;100.00;99644.50;1677433;85;21657;-73
2021/12/24 05:06:07;;;;;;;29.40;12.07;;;;;;;-12.80;100.00;99634.48;1689424;84;21664;-73
2021/12/24 05:10:22;;;;;;;44.40;17.50;;;;;;;-12.80;100.00;99628.16;1705871;83;21945;-78
2021/12/24 05:12:49;;;;;;;44.27;15.93;;;;;;;-12.76;100.00;99616.09;1705641;84;21113;-77
2021/12/24 05:15:18;;;;;;;34.67;13.63;;;;;;;-12.71;100.00;99614.64;1678344;84;21087;-77
2021/12/24 05:18:32;;;;;;;31.63;10.97;;;;;;;-12.72;100.00;99612.52;1593858;89;21047;-77
2021/12/24 05:24:01;;;;;;;30.40;12.47;;;;;;;-12.69;100.00;99598.70;1603195;88;21885;-72
2021/12/24 05:26:29;;;;;;;36.03;14.33;;;;;;;-12.62;100.00;99591.38;1628756;88;21624;-73
2021/12/24 05:28:59;;;;;;;45.70;16.67;;;;;;;-12.60;100.00;99589.37;1630046;88;21054;-75
2021/12/24 05:31:26;;;;;;;32.60;11.50;;;;;;;-12.54;100.00;99582.03;1629598;88;21058;-72
2021/12/24 05:33:53;;;;;;;35.07;12.40;;;;;;;-12.48;100.00;99584.00;1635448;86;21058;-72
2021/12/24 05:36:21;;;;;;;32.77;11.70;;;;;;;-12.43;100.00;99579.13;1647056;86;21141;-74
2021/12/24 05:38:48;;;;;;;33.67;13.17;;;;;;;-12.40;100.00;99574.19;1633739;86;22236;-74
2021/12/24 05:41:18;;;;;;;17.10;7.23;;;;;;;-12.36;100.00;99577.34;1630486;86;21083;-75
2021/12/24 05:43:45;;;;;;;21.27;9.90;;;;;;;-12.30;100.00;99572.55;1631828;86;21553;-65
2021/12/24 05:46:13;;;;;;;20.50;8.57;;;;;;;-12.22;100.00;99580.50;1634075;86;21027;-66
2021/12/24 05:48:47;;;;;;;31.93;9.23;;;;;;;-12.18;100.00;99574.36;1648069;85;21243;-69
2021/12/24 05:51:15;;;;;;;23.10;10.97;;;;;;;-12.11;100.00;99572.55;1643192;86;21596;-67
2021/12/24 05:53:49;;;;;;;24.33;9.63;;;;;;;-12.05;100.00;99576.64;1630181;86;21660;-67
2021/12/24 05:56:17;;;;;;;28.43;11.17;;;;;;;-12.00;100.00;99567.09;1639755;86;22238;-68
2021/12/24 05:58:45;;;;;;;26.43;9.73;;;;;;;-11.94;100.00;99572.41;1645855;86;21062;-67
2021/12/24 06:01:13;;;;;;;33.33;11.60;;;;;;;-11.89;100.00;99574.37;1639998;86;21558;-70
2021/12/24 06:05:49;;;;;;;37.77;12.97;;;;;;;-11.73;100.00;99568.25;1788207;79;27009;-69
2021/12/24 06:08:16;;;;;;;28.40;12.80;;;;;;;-11.71;100.00;99565.38;1751620;81;21106;-72
2021/12/24 06:10:43;;;;;;;39.00;15.63;;;;;;;-11.65;100.00;99561.80;1751090;80;21141;-69
2021/12/24 06:13:12;;;;;;;30.80;12.47;;;;;;;-11.57;100.00;99551.09;1751875;81;20954;-68
2021/12/24 06:15:43;;;;;;;27.60;11.23;;;;;;;-11.52;100.00;99543.28;1742092;80;21003;-68
2021/12/24 06:18:13;;;;;;;28.27;13.33;;;;;;;-11.47;100.00;99538.84;1720252;83;21203;-67
2021/12/24 06:20:41;;;;;;;28.07;11.50;;;;;;;-11.43;100.00;99536.03;1724720;83;21079;-68
2021/12/24 06:23:09;;;;;;;25.80;10.17;;;;;;;-11.38;100.00;99539.62;1723588;82;21571;-66
2021/12/24 06:25:36;;;;;;;24.03;10.20;;;;;;;-11.34;100.00;99535.14;1723535;83;21046;-68
2021/12/24 06:28:04;;;;;;;33.03;15.80;;;;;;;-11.28;100.00;99521.38;1723764;83;21061;-68
2021/12/24 06:30:32;;;;;;;25.40;10.50;;;;;;;-11.23;100.00;99531.33;1722480;82;21077;-68
2021/12/24 06:32:59;;;;;;;31.10;13.33;;;;;;;-11.17;100.00;99520.55;1718440;83;21065;-67
2021/12/24 06:35:26;;;;;;;30.90;11.73;;;;;;;-11.10;100.00;99511.50;1722815;83;21519;-68
2021/12/24 06:37:53;;;;;;;30.87;12.83;;;;;;;-11.05;100.00;99510.85;1729386;82;21103;-68
2021/12/24 06:40:21;;;;;;;33.27;12.37;;;;;;;-11.00;100.00;99499.59;1725570;83;21009;-68
2021/12/24 06:42:47;;;;;;;21.57;10.13;;;;;;;-10.95;100.00;99506.98;1725193;83;20994;-67
2021/12/24 06:45:19;;;;;;;33.17;12.33;;;;;;;-10.86;100.00;99500.98;1730197;82;21057;-69
2021/12/24 06:47:44;;;;;;;;;;;;;;;-10.79;100.00;99501.70;1727407;82;21131;-70
2021/12/24 06:50:10;;;;;;;24.47;11.83;;;;;;;-10.73;100.00;99490.02;1725255;83;20252;-69
2021/12/24 06:52:41;;;;;;;29.63;10.08;;;;;;;-10.67;100.00;99487.67;1725451;83;20982;-70
2021/12/24 06:55:10;;;;;;;31.63;10.70;;;;;;;-10.59;100.00;99489.70;1725001;83;21026;-70
2021/12/24 06:57:40;;;;;;;28.40;13.05;;;;;;;-10.54;100.00;99487.33;1739890;82;21121;-71
2021/12/24 07:00:10;;;;;;;36.70;13.83;;;;;;;-10.59;100.00;99446.44;1729881;82;21961;-68
2021/12/24 07:02:38;;;;;;;40.10;11.97;;;;;;;-10.39;100.00;99458.63;1719968;82;21694;-70
2021/12/24 07:05:05;;;;;;;26.50;11.13;;;;;;;-10.33;100.00;99449.05;1707778;82;22162;-70
2021/12/24 07:07:32;;;;;;;39.90;14.30;;;;;;;-10.26;100.00;99458.63;1734914;82;21560;-71
2021/12/24 07:09:59;;;;;;;33.60;10.57;;;;;;;-10.19;100.00;99439.31;1728365;82;21162;-71
2021/12/24 07:12:26;;;;;;;38.60;14.93;;;;;;;-10.13;100.00;99444.63;1725753;82;21177;-71
2021/12/24 07:14:54;;;;;;;26.87;11.63;;;;;;;-10.08;100.00;99426.54;1724444;82;21070;-70
2021/12/24 07:17:20;;;;;;;31.63;11.00;;;;;;;-10.01;100.00;99423.38;1722260;82;21120;-70
2021/12/24 07:19:47;;;;;;;30.63;12.63;;;;;;;-9.96;99.85;99426.08;1733398;81;21018;-71
2021/12/24 07:22:16;;;;;;;34.30;12.00;;;;;;;-9.93;99.79;99414.33;1736701;80;21096;-70
2021/12/24 07:24:42;;;;;;;27.37;10.97;;;;;;;-9.85;99.47;99412.44;1733412;82;22048;-70
2021/12/24 07:27:09;;;;;;;26.07;10.70;;;;;;;-9.84;99.06;99420.14;1732150;82;21092;-69
2021/12/24 07:29:36;;;;;;;30.67;12.87;;;;;;;-9.78;99.22;99405.45;1722128;82;21085;-70
2021/12/24 07:32:04;;;;;;;24.57;9.13;;;;;;;-9.76;99.14;99405.09;1726120;82;21148;-70
2021/12/24 07:34:31;;;;;;;26.80;11.07;;;;;;;-9.72;99.14;99391.23;1693265;83;21064;-71
2021/12/24 07:36:58;;;;;;;30.90;13.43;;;;;;;-9.68;99.09;99392.20;1674640;84;21155;-70
2021/12/24 07:39:25;;;;;;;26.03;11.77;;;;;;;-9.62;99.10;99380.91;1688982;83;21014;-71
2021/12/24 07:41:51;;;;;;;27.87;11.20;;;;;;;-9.56;99.19;99383.66;1675553;84;21133;-70
2021/12/24 07:44:18;;;;;;;32.63;11.20;;;;;;;-9.53;98.96;99381.61;1677736;84;21061;-70
2021/12/24 07:46:50;;;;;;;35.13;13.60;;;;;;;-9.49;98.61;99375.80;1678261;84;21097;-70
2021/12/24 07:49:40;;;;;;;39.83;15.00;;;;;;;-9.45;98.62;99370.36;1686210;84;21592;-72
2021/12/24 07:54:31;;;;;;;28.50;12.43;;;;;;;-9.37;98.35;99354.48;1687897;84;21108;-70
2021/12/24 07:56:59;;;;;;;34.30;13.73;;;;;;;-9.35;98.18;99350.72;1689623;83;21077;-70
2021/12/24 07:59:28;;;;;;;18.53;8.40;;;;;;;-9.30;98.40;99353.84;1685010;84;21093;-70
2021/12/24 08:01:57;;;;;;;;;;;;;;;-9.26;98.34;99347.17;1692468;84;21144;-70
2021/12/24 08:04:23;;;;;;;25.60;10.70;;;;;;;-9.21;98.59;99343.06;1660118;84;20274;-70
2021/12/24 08:06:50;;;;;;;30.33;13.27;;;;;;;-9.19;98.29;99335.05;1672089;84;21620;-70
2021/12/24 08:09:17;;;;;;;20.47;8.40;;;;;;;-9.14;98.62;99342.41;1676360;84;21066;-69
2021/12/24 08:11:44;;;;;;;19.80;8.67;;;;;;;-9.10;98.39;99339.14;1677102;84;21706;-68
2021/12/24 08:14:10;;;;;;;21.30;10.10;;;;;;;-9.09;98.02;99328.13;1673762;84;21210;-69
2021/12/24 08:16:38;;;;;;;21.07;9.40;;;;;;;-9.06;98.43;99327.34;1676348;84;21211;-70
2021/12/24 08:19:06;;;;;;;23.63;10.97;;;;;;;-9.05;97.97;99316.31;1683904;83;21084;-69
2021/12/24 08:21:32;;;;;;;21.43;9.63;;;;;;;-9.05;98.08;99319.28;1718759;82;21506;-70
2021/12/24 08:23:59;;;;;;;38.67;15.93;;;;;;;-9.02;98.92;99309.15;1720724;82;21054;-70
2021/12/24 08:26:29;;;;;;;29.37;10.50;;;;;;;-8.96;99.52;99302.95;1720053;82;21062;-69
2021/12/24 08:28:54;;;;;;;39.70;15.43;;;;;;;-8.92;99.49;99300.53;1719008;82;21116;-70
2021/12/24 08:31:21;;;;;;;36.13;12.97;;;;;;;-8.87;98.90;99294.27;1721202;82;21073;-69
2021/12/24 08:33:48;;;;;;;21.90;11.43;;;;;;;-8.85;98.78;99286.25;1719370;82;21081;-69
2021/12/24 08:36:15;;;;;;;27.43;11.57;;;;;;;-8.84;98.53;99279.45;1719438;83;21100;-70
2021/12/24 08:38:43;;;;;;;31.53;12.63;;;;;;;-8.85;98.43;99269.66;1718334;82;21161;-69
2021/12/24 08:41:09;;;;;;;22.53;8.33;;;;;;;-8.85;98.69;99268.39;1718714;82;21487;-71
2021/12/24 08:43:35;;;;;;;22.67;9.87;;;;;;;-8.83;98.76;99253.98;1717593;82;21104;-69
2021/12/24 08:46:02;;;;;;;34.17;13.13;;;;;;;-8.75;99.01;99251.20;1683162;83;21132;-70
2021/12/24 08:48:29;;;;;;;24.87;8.83;;;;;;;-8.71;98.84;99237.70;1691270;84;21049;-69
2021/12/24 08:50:56;;;;;;;23.20;10.10;;;;;;;-8.67;98.64;99228.03;1729924;82;21307;-70
2021/12/24 08:53:23;;;;;;;30.90;13.60;;;;;;;-8.60;98.58;99221.78;1715968;82;21050;-70
2021/12/24 08:55:51;;;;;;;22.20;8.37;;;;;;;-8.56;98.57;99212.10;1721943;82;21152;-70
2021/12/24 08:58:19;;;;;;;21.07;8.53;;;;;;;-8.53;98.43;99204.54;1720145;82;21124;-70
2021/12/24 09:00:46;;;;;;;26.60;10.67;;;;;;;-8.51;98.28;99205.02;1722233;82;21137;-70
2021/12/24 09:03:13;;;;;;;29.23;11.80;;;;;;;-8.49;98.00;99195.72;1721628;82;22773;-71
2021/12/24 09:05:40;;;;;;;30.73;10.90;;;;;;;-8.50;98.55;99185.45;1721680;82;21113;-70
2021/12/24 09:08:08;;;;;;;30.07;12.90;;;;;;;-8.48;98.84;99187.63;1725387;82;21058;-70
2021/12/24 09:10:35;;;;;;;31.17;12.97;;;;;;;-8.43;99.21;99178.80;1723060;82;21085;-70
2021/12/24 09:13:02;;;;;;;23.87;9.17;;;;;;;-8.38;99.61;99172.93;1728339;81;21634;-70
2021/12/24 09:15:30;;;;;;;31.53;12.07;;;;;;;-8.37;99.14;99155.91;1723852;82;21215;-69
2021/12/24 09:17:59;;;;;;;24.97;9.37;;;;;;;-8.37;99.60;99182.34;1725166;81;21036;-69
2021/12/24 09:20:35;;;;;;;28.57;12.90;;;;;;;-8.38;100.00;99151.23;1726568;81;21037;-70
2021/12/24 09:23:00;;;;;;;;;;;;;;;-8.34;100.00;99119.83;1727103;82;21092;-69
2021/12/24 09:25:27;;;;;;;21.20;9.07;;;;;;;-8.33;100.00;99113.88;1724192;81;20213;-70
2021/12/24 09:27:55;;;;;;;21.30;10.03;;;;;;;-8.32;100.00;99116.89;1727225;81;22006;-70
2021/12/24 09:30:21;;;;;;;33.20;13.80;;;;;;;-8.34;100.00;99119.83;1724811;83;21136;-70
2021/12/24 09:32:47;;;;;;;22.33;10.10;;;;;;;-8.34;100.00;99119.83;1724408;83;21555;-71
2021/12/24 09:35:14;;;;;;;30.30;12.57;;;;;;;-8.34;100.00;99103.23;1726576;82;21080;-70
2021/12/24 09:37:41;;;;;;;29.23;12.50;;;;;;;-8.33;100.00;99098.55;1724046;82;21017;-70
2021/12/24 09:40:12;;;;;;;25.07;10.67;;;;;;;-8.25;100.00;99097.04;1725229;81;21197;-70
2021/12/24 09:42:39;;;;;;;30.52;10.05;;;;;;;-8.20;100.00;99091.17;1726546;81;24222;-71
2021/12/24 09:45:08;;;;;;;24.57;11.10;;;;;;;-8.12;100.00;99075.58;1728136;82;21050;-70
2021/12/24 09:47:36;;;;;;;32.50;13.20;;;;;;;-8.13;100.00;99077.70;1724304;82;21053;-70
2021/12/24 09:50:04;;;;;;;25.27;11.93;;;;;;;-8.11;100.00;99063.27;1723014;82;21804;-69
2021/12/24 09:52:31;;;;;;;23.90;8.60;;;;;;;-8.10;100.00;99059.87;1722112;81;21202;-70
2021/12/24 09:55:00;;;;;;;20.63;10.37;;;;;;;-8.04;100.00;99052.34;1703691;84;21066;-70
2021/12/24 09:57:26;;;;;;;35.03;14.70;;;;;;;-7.98;100.00;99043.92;1659775;84;21048;-71
2021/12/24 09:59:53;;;;;;;29.40;12.73;;;;;;;-7.93;100.00;99041.91;1698678;84;21068;-70
2021/12/24 10:02:26;;;;;;;24.77;8.47;;;;;;;-7.87;100.00;99030.54;1671434;85;21165;-70
2021/12/24 10:04:49;;;;;;;28.10;13.72;;;;;;;-7.92;100.00;99041.06;1673518;85;21080;-70
2021/12/24 10:07:17;;;;;;;31.17;12.43;;;;;;;-7.82;100.00;99028.92;1701757;84;21064;-71
2021/12/24 10:09:49;;;;;;;21.90;9.20;;;;;;;-7.72;100.00;99018.87;1668168;85;21044;-70
2021/12/24 10:12:19;;;;;;;28.27;12.33;;;;;;;-7.68;100.00;99006.59;1689492;84;21999;-70
2021/12/24 10:14:57;;;;;;;21.55;10.18;;;;;;;-7.66;99.88;99006.17;1665741;85;21072;-69
2021/12/24 10:17:32;;;;;;;22.80;9.93;;;;;;;-7.68;100.00;98995.09;1662549;85;21141;-70
2021/12/24 10:20:18;;;;;;;27.47;11.40;;;;;;;-7.68;100.00;98997.65;1668169;85;21622;-70
2021/12/24 10:22:51;;;;;;;27.27;12.57;;;;;;;-7.67;100.00;99000.63;1654101;85;21048;-70
2021/12/24 10:25:20;;;;;;;26.27;11.87;;;;;;;-7.68;99.92;98992.53;1671927;85;21131;-70
2021/12/24 10:27:47;;;;;;;29.82;11.05;;;;;;;-7.70;99.63;98989.09;1649793;85;20987;-70
2021/12/24 10:30:26;;;;;;;32.93;14.63;;;;;;;-7.72;99.88;98980.53;1672380;85;21139;-70
2021/12/24 10:32:55;;;;;;;28.13;13.47;;;;;;;-7.69;100.00;98967.79;1672044;85;21146;-70
2021/12/24 10:35:26;;;;;;;27.17;12.43;;;;;;;-7.65;100.00;98967.86;1671091;85;21852;-71
2021/12/24 10:38:13;;;;;;;30.23;14.10;;;;;;;-7.62;100.00;98963.22;1671864;85;21653;-69
2021/12/24 10:40:57;;;;;;;21.97;9.70;;;;;;;-7.59;100.00;98956.90;1671694;85;21083;-69
2021/12/24 10:43:30;;;;;;;30.03;10.33;;;;;;;-7.63;100.00;98942.34;1691343;84;22126;-74
2021/12/24 10:46:13;;;;;;;24.23;11.63;;;;;;;-7.66;100.00;98933.31;1664991;85;21593;-70
2021/12/24 10:48:47;;;;;;;13.63;6.70;;;;;;;-7.69;100.00;98937.11;1671093;85;21667;-70
2021/12/24 10:51:19;;;;;;;26.07;11.85;;;;;;;-7.76;100.00;98923.36;1666286;85;21150;-71
2021/12/24 10:54:06;;;;;;;31.40;12.60;;;;;;;-7.77;100.00;98915.69;1670617;85;21073;-71
2021/12/24 10:56:33;;;;;;;31.80;14.63;;;;;;;-7.77;100.00;98909.30;1649305;85;21444;-71
2021/12/24 10:58:59;;;;;;;29.97;11.10;;;;;;;-7.71;100.00;98900.44;1690490;83;21067;-70
2021/12/24 11:01:26;;;;;;;35.60;13.83;;;;;;;-7.68;100.00;98899.22;1695267;84;21056;-71
2021/12/24 11:03:53;;;;;;;32.03;14.07;;;;;;;-7.66;100.00;98899.69;1688763;84;21077;-70
2021/12/24 11:06:22;;;;;;;27.20;11.20;;;;;;;-7.58;100.00;98897.23;1672391;84;21043;-70
2021/12/24 11:08:54;;;;;;;25.37;10.83;;;;;;;-7.57;100.00;98898.09;1725881;82;22301;-71
2021/12/24 11:11:21;;;;;;;21.07;9.00;;;;;;;-7.61;100.00;98884.42;1727925;82;21650;-71
2021/12/24 11:13:50;;;;;;;25.10;11.97;;;;;;;-7.62;100.00;98885.23;1720348;82;21075;-71
2021/12/24 11:36:19;;;;;;;25.50;11.87;;;;;;;-7.43;100.00;98851.45;1735830;81;21666;-73
2021/12/24 11:38:50;;;;;;;21.23;8.88;;;;;;;-7.42;100.00;98851.88;1735502;82;21142;-72
2021/12/24 11:41:20;;;;;;;32.83;15.07;;;;;;;-7.45;100.00;98859.52;1725718;82;21179;-72
2021/12/24 11:43:49;;;;;;;39.48;14.93;;;;;;;-7.45;100.00;98868.47;1734459;82;21072;-72
2021/12/24 11:46:18;;;;;;;38.17;16.60;;;;;;;-7.45;100.00;98851.84;1734683;82;21028;-72
2021/12/24 11:48:48;;;;;;;35.90;16.20;;;;;;;-7.42;100.00;98850.60;1734961;82;21601;-71
2021/12/24 11:51:23;;;;;;;24.53;12.13;;;;;;;-7.34;100.00;98843.45;1735579;82;21633;-73
2021/12/24 11:53:51;;;;;;;23.27;9.30;;;;;;;-7.29;100.00;98831.19;1728405;81;21143;-72
2021/12/24 11:56:23;;;;;;;28.13;11.77;;;;;;;-7.27;100.00;98826.06;1718417;82;21053;-71
2021/12/24 11:58:54;;;;;;;31.47;13.53;;;;;;;-7.29;100.00;98820.06;1722763;83;21089;-72
2021/12/24 12:01:25;;;;;;;26.17;11.77;;;;;;;-7.30;100.00;98810.69;1719276;82;21081;-71
2021/12/24 12:03:56;;;;;;;31.93;14.53;;;;;;;-7.28;100.00;98809.02;1712552;83;21100;-72
2021/12/24 12:06:28;;;;;;;32.73;14.00;;;;;;;-7.31;100.00;98791.93;1719964;83;21126;-71
2021/12/24 12:08:56;;;;;;;26.53;12.50;;;;;;;-7.21;100.00;98804.41;1711526;83;21066;-71
2021/12/24 12:11:32;;;;;;;27.03;13.00;;;;;;;-7.18;100.00;98799.32;1722549;83;21060;-71
2021/12/24 12:14:23;;;;;;;31.07;13.93;;;;;;;-7.17;100.00;98804.89;1703219;83;21108;-71
2021/12/24 12:16:53;;;;;;;13.90;6.97;;;;;;;-7.15;100.00;98790.42;1722425;83;21591;-71
2021/12/24 12:19:57;;;;;;;32.70;15.57;;;;;;;-7.16;100.00;98789.97;1719597;83;22022;-71
2021/12/24 12:22:18;;;;;;;23.73;10.65;;;;;;;-7.13;100.00;98795.15;1710541;83;21227;-71
2021/12/24 12:25:02;;;;;;;32.33;14.70;;;;;;;-7.15;100.00;98790.42;1718524;83;21080;-71
2021/12/24 12:27:41;;;;;;;30.00;12.73;;;;;;;-7.12;100.00;98780.22;1718561;83;21229;-70
2021/12/24 12:30:24;;;;;;;27.37;11.20;;;;;;;-7.11;100.00;98775.53;1711656;81;21153;-72
2021/12/24 12:33:16;;;;;;;32.87;15.33;;;;;;;-7.10;100.00;98771.30;1715949;83;21647;-71
2021/12/24 12:35:57;;;;;;;36.58;15.45;;;;;;;-7.09;100.00;98778.97;1719106;83;21602;-72
2021/12/24 12:38:41;;;;;;;21.62;10.48;;;;;;;-7.05;100.00;98781.16;1719475;83;21113;-71
2021/12/24 12:41:34;;;;;;;31.20;14.53;;;;;;;-7.05;100.00;98771.77;1723029;83;21364;-72
2021/12/24 12:44:04;;;;;;;18.13;9.37;;;;;;;-7.04;100.00;98765.83;1724293;83;21105;-72
2021/12/24 12:46:37;;;;;;;32.13;13.70;;;;;;;-6.98;100.00;98776.11;1717533;83;21995;-71
2021/12/24 12:49:08;;;;;;;22.23;8.47;;;;;;;-6.94;100.00;98783.84;1723906;83;21599;-72
2021/12/24 12:52:03;;;;;;;27.63;14.97;;;;;;;-6.95;100.00;98785.52;1720325;81;21579;-72
2021/12/24 12:54:42;;;;;;;27.93;12.70;;;;;;;-6.92;100.00;98787.25;1723923;83;21345;-73
2021/12/24 12:57:33;;;;;;;21.07;11.43;;;;;;;-6.90;100.00;98772.78;1712194;82;21591;-70
2021/12/24 13:00:18;;;;;;;31.57;14.43;;;;;;;-6.85;100.00;98774.98;1716565;83;22422;-70
2021/12/24 13:05:45;;;;;;;21.93;8.47;;;;;;;-6.84;100.00;98730.62;1721138;83;22050;-71
2021/12/24 13:08:23;;;;;;;;;;;;;;;-6.82;100.00;98717.41;1721886;83;21100;-70
2021/12/24 13:11:06;;;;;;;31.07;13.40;;;;;;;-6.82;100.00;98725.95;1725196;83;20192;-71
2021/12/24 13:13:52;;;;;;;16.07;9.10;;;;;;;-6.77;100.00;98710.63;1721818;83;21588;-69
2021/12/24 13:16:17;;;;;;;23.40;9.70;;;;;;;-6.74;100.00;98702.97;1672401;83;21078;-71
2021/12/24 13:19:00;;;;;;;30.70;14.57;;;;;;;-6.73;100.00;98707.27;1721067;83;21456;-71
2021/12/24 13:24:13;;;;;;;33.40;15.60;;;;;;;-6.68;100.00;98682.55;1726533;83;21060;-71
2021/12/24 13:26:43;;;;;;;34.17;12.73;;;;;;;-6.67;100.00;98686.84;1726346;83;21033;-71
2021/12/24 13:29:16;;;;;;;20.17;8.00;;;;;;;-6.67;100.00;98681.72;1723340;83;21041;-71